EZY2005 EPGD-EGKK
Flight info
| Callsign | EZY2005 |
|---|---|
| Flight time | N/A |
| Altitude | 38000 |
| Route | DEXIR3H DEXIR T671 AGODU DCT BINKA DCT BUMIL DCT ODVIL DCT GALSO Q63 ARREK Y4 TEBRA TEBRA2G |
| Aircraft | A319/M-SDE3FGHIRWY/LB1 |
Departure
| Time | 2026-05-05 19:25 |
|---|---|
| Airport | Gdańsk Lech Wałęsa Airport (EPGD) |
Arrival
| Time | N/A |
|---|---|
| Airport | London Gatwick Airport (EGKK) |
| Time | Latitude | Longitude | Altitude | Speed | Heading |
|---|---|---|---|---|---|
| 2026-05-05 19:04 | 54.38006 | 18.47013 | 459 ft | 0 kts | 353° |
| 2026-05-05 19:15 | 54.37990 | 18.47020 | 457 ft | 2 kts | 338° |
| 2026-05-05 19:16 | 54.37976 | 18.47032 | 459 ft | 2 kts | 321° |
| 2026-05-05 19:16 | 54.37966 | 18.47050 | 460 ft | 2 kts | 306° |
| 2026-05-05 19:16 | 54.37959 | 18.47071 | 460 ft | 2 kts | 294° |
| 2026-05-05 19:16 | 54.37956 | 18.47081 | 457 ft | 0 kts | 290° |
| 2026-05-05 19:19 | 54.37956 | 18.47080 | 457 ft | 0 kts | 290° |
| 2026-05-05 19:19 | 54.37957 | 18.47080 | 457 ft | 0 kts | 290° |
| 2026-05-05 19:19 | 54.37957 | 18.47079 | 457 ft | 0 kts | 290° |
| 2026-05-05 19:19 | 54.37961 | 18.47056 | 459 ft | 0 kts | 281° |
| 2026-05-05 19:20 | 54.37949 | 18.47006 | 459 ft | 5 kts | 225° |
| 2026-05-05 19:20 | 54.37883 | 18.46965 | 459 ft | 11 kts | 191° |
| 2026-05-05 19:20 | 54.37843 | 18.47006 | 459 ft | 9 kts | 111° |
| 2026-05-05 19:20 | 54.37812 | 18.47127 | 459 ft | 18 kts | 118° |
| 2026-05-05 19:21 | 54.37743 | 18.47410 | 459 ft | 33 kts | 112° |
| 2026-05-05 19:21 | 54.37636 | 18.47840 | 469 ft | 46 kts | 112° |
| 2026-05-05 19:21 | 54.37495 | 18.48408 | 479 ft | 56 kts | 115° |
| 2026-05-05 19:21 | 54.37354 | 18.48986 | 492 ft | 55 kts | 113° |
| 2026-05-05 19:22 | 54.37258 | 18.49268 | 491 ft | 14 kts | 159° |
| 2026-05-05 19:22 | 54.37215 | 18.49262 | 496 ft | 1 kts | 208° |
| 2026-05-05 19:24 | 54.37214 | 18.49261 | 496 ft | 1 kts | 209° |
| 2026-05-05 19:24 | 54.37180 | 18.49218 | 494 ft | 13 kts | 219° |
| 2026-05-05 19:24 | 54.37139 | 18.49141 | 493 ft | 3 kts | 268° |
| 2026-05-05 19:24 | 54.37172 | 18.48976 | 493 ft | 37 kts | 295° |
| 2026-05-05 19:25 | 54.37388 | 18.48124 | 478 ft | 118 kts | 292° |
| 2026-05-05 19:25 | 54.37794 | 18.46500 | 793 ft | 163 kts | 295° |
| 2026-05-05 19:25 | 54.38260 | 18.44701 | 1840 ft | 164 kts | 297° |
| 2026-05-05 19:25 | 54.38683 | 18.42922 | 2941 ft | 158 kts | 293° |
| 2026-05-05 19:26 | 54.39097 | 18.41106 | 3740 ft | 169 kts | 293° |
| 2026-05-05 19:26 | 54.39592 | 18.39143 | 4272 ft | 194 kts | 294° |
| 2026-05-05 19:26 | 54.40154 | 18.36871 | 4700 ft | 220 kts | 290° |
| 2026-05-05 19:26 | 54.40174 | 18.34032 | 5075 ft | 258 kts | 252° |
| 2026-05-05 19:27 | 54.39375 | 18.31185 | 6163 ft | 264 kts | 243° |
| 2026-05-05 19:27 | 54.38590 | 18.28412 | 7453 ft | 262 kts | 248° |
| 2026-05-05 19:27 | 54.37949 | 18.25444 | 8551 ft | 267 kts | 251° |
| 2026-05-05 19:27 | 54.37327 | 18.22422 | 9713 ft | 269 kts | 250° |
| 2026-05-05 19:28 | 54.36651 | 18.19409 | 10743 ft | 273 kts | 249° |
| 2026-05-05 19:28 | 54.35944 | 18.16286 | 11421 ft | 290 kts | 249° |
| 2026-05-05 19:28 | 54.35198 | 18.12934 | 11964 ft | 311 kts | 249° |
| 2026-05-05 19:28 | 54.34414 | 18.09403 | 12572 ft | 325 kts | 249° |
| 2026-05-05 19:29 | 54.33608 | 18.05802 | 13723 ft | 323 kts | 249° |
| 2026-05-05 19:29 | 54.32789 | 18.02150 | 14600 ft | 327 kts | 249° |
| 2026-05-05 19:29 | 54.31978 | 17.98537 | 15391 ft | 331 kts | 249° |
| 2026-05-05 19:29 | 54.31143 | 17.94823 | 16204 ft | 335 kts | 249° |
| 2026-05-05 19:30 | 54.30298 | 17.91072 | 17003 ft | 339 kts | 249° |
| 2026-05-05 19:30 | 54.29440 | 17.87268 | 17784 ft | 343 kts | 249° |
| 2026-05-05 19:30 | 54.28573 | 17.83434 | 18491 ft | 348 kts | 249° |
| 2026-05-05 19:30 | 54.27694 | 17.79553 | 19185 ft | 350 kts | 249° |
| 2026-05-05 19:31 | 54.26810 | 17.75657 | 19897 ft | 352 kts | 249° |
| 2026-05-05 19:31 | 54.25931 | 17.71790 | 20556 ft | 354 kts | 249° |
| 2026-05-05 19:31 | 54.25033 | 17.67844 | 21220 ft | 356 kts | 249° |
| 2026-05-05 19:31 | 54.24124 | 17.63861 | 21869 ft | 359 kts | 249° |
| 2026-05-05 19:32 | 54.23212 | 17.59873 | 22479 ft | 361 kts | 249° |
| 2026-05-05 19:32 | 54.22292 | 17.55854 | 23100 ft | 364 kts | 249° |
| 2026-05-05 19:32 | 54.21377 | 17.51868 | 23661 ft | 366 kts | 249° |
| 2026-05-05 19:32 | 54.20442 | 17.47796 | 24156 ft | 368 kts | 249° |
| 2026-05-05 19:33 | 54.19502 | 17.43715 | 24645 ft | 369 kts | 249° |
| 2026-05-05 19:33 | 54.18557 | 17.39623 | 25121 ft | 371 kts | 249° |
| 2026-05-05 19:33 | 54.17604 | 17.35501 | 25588 ft | 373 kts | 249° |
| 2026-05-05 19:33 | 54.16647 | 17.31371 | 26060 ft | 375 kts | 249° |
| 2026-05-05 19:34 | 54.15684 | 17.27218 | 26499 ft | 377 kts | 249° |
| 2026-05-05 19:34 | 54.14724 | 17.23092 | 26912 ft | 379 kts | 249° |
| 2026-05-05 19:34 | 54.13743 | 17.18883 | 27340 ft | 381 kts | 249° |
| 2026-05-05 19:35 | 54.11784 | 17.10501 | 28151 ft | 384 kts | 249° |
| 2026-05-05 19:35 | 54.10789 | 17.06256 | 28538 ft | 386 kts | 249° |
| 2026-05-05 19:35 | 54.09798 | 17.01986 | 28908 ft | 388 kts | 250° |
| 2026-05-05 19:35 | 54.09025 | 16.97558 | 29270 ft | 390 kts | 254° |
| 2026-05-05 19:36 | 54.08313 | 16.93138 | 29622 ft | 392 kts | 254° |
| 2026-05-05 19:36 | 54.07574 | 16.88663 | 29973 ft | 393 kts | 254° |
| 2026-05-05 19:36 | 54.06815 | 16.84176 | 30271 ft | 395 kts | 254° |
| 2026-05-05 19:36 | 54.06057 | 16.79662 | 30558 ft | 396 kts | 254° |
| 2026-05-05 19:37 | 54.05303 | 16.75140 | 30840 ft | 397 kts | 254° |
| 2026-05-05 19:37 | 54.04542 | 16.70604 | 31136 ft | 398 kts | 254° |
| 2026-05-05 19:37 | 54.03785 | 16.66126 | 31516 ft | 397 kts | 254° |
| 2026-05-05 19:37 | 54.03022 | 16.61616 | 31947 ft | 395 kts | 254° |
| 2026-05-05 19:38 | 54.02266 | 16.57146 | 32343 ft | 393 kts | 254° |
| 2026-05-05 19:38 | 54.01509 | 16.52688 | 32719 ft | 391 kts | 254° |
| 2026-05-05 19:38 | 54.00751 | 16.48246 | 33116 ft | 389 kts | 254° |
| 2026-05-05 19:38 | 53.99997 | 16.43830 | 33504 ft | 387 kts | 255° |
| 2026-05-05 19:39 | 53.99254 | 16.39481 | 33874 ft | 386 kts | 255° |
| 2026-05-05 19:39 | 53.98504 | 16.35109 | 34186 ft | 385 kts | 255° |
| 2026-05-05 19:39 | 53.97752 | 16.30744 | 34393 ft | 386 kts | 254° |
| 2026-05-05 19:39 | 53.96995 | 16.26356 | 34590 ft | 387 kts | 254° |
| 2026-05-05 19:40 | 53.96237 | 16.21967 | 34813 ft | 388 kts | 254° |
| 2026-05-05 19:40 | 53.95475 | 16.17565 | 35027 ft | 389 kts | 254° |
| 2026-05-05 19:40 | 53.94709 | 16.13154 | 35229 ft | 390 kts | 255° |
| 2026-05-05 19:40 | 53.94155 | 16.08648 | 35439 ft | 390 kts | 261° |
| 2026-05-05 19:41 | 53.93751 | 16.04073 | 35643 ft | 391 kts | 261° |
| 2026-05-05 19:41 | 53.93330 | 15.99558 | 35828 ft | 392 kts | 260° |
| 2026-05-05 19:41 | 53.92891 | 15.94980 | 36038 ft | 393 kts | 260° |
| 2026-05-05 19:41 | 53.92459 | 15.90389 | 36234 ft | 394 kts | 261° |
| 2026-05-05 19:42 | 53.92028 | 15.85775 | 36425 ft | 395 kts | 261° |
| 2026-05-05 19:42 | 53.91595 | 15.81216 | 36618 ft | 396 kts | 260° |
| 2026-05-05 19:42 | 53.91154 | 15.76594 | 36807 ft | 396 kts | 260° |
| 2026-05-05 19:42 | 53.90711 | 15.71964 | 36998 ft | 397 kts | 260° |
| 2026-05-05 19:43 | 53.90267 | 15.67338 | 37172 ft | 398 kts | 260° |
| 2026-05-05 19:43 | 53.89819 | 15.62689 | 37365 ft | 399 kts | 260° |
| 2026-05-05 19:43 | 53.89369 | 15.58038 | 37549 ft | 400 kts | 260° |
| 2026-05-05 19:43 | 53.88915 | 15.53377 | 37716 ft | 401 kts | 260° |
| 2026-05-05 19:44 | 53.88463 | 15.48746 | 37852 ft | 402 kts | 260° |
| 2026-05-05 19:44 | 53.87533 | 15.39289 | 37897 ft | 411 kts | 260° |
| 2026-05-05 19:45 | 53.86585 | 15.29720 | 37889 ft | 410 kts | 260° |
| 2026-05-05 19:45 | 53.85641 | 15.20275 | 37893 ft | 409 kts | 260° |
| 2026-05-05 19:46 | 53.84682 | 15.10762 | 37886 ft | 409 kts | 259° |
| 2026-05-05 19:46 | 53.83717 | 15.01260 | 37887 ft | 409 kts | 259° |
| 2026-05-05 19:47 | 53.82750 | 14.91821 | 37900 ft | 409 kts | 259° |
| 2026-05-05 19:47 | 53.81767 | 14.82314 | 37895 ft | 410 kts | 259° |
| 2026-05-05 19:48 | 53.80776 | 14.72789 | 37901 ft | 410 kts | 259° |
| 2026-05-05 19:48 | 53.79782 | 14.63324 | 37892 ft | 410 kts | 259° |
| 2026-05-05 19:49 | 53.78784 | 14.53890 | 37898 ft | 408 kts | 259° |
| 2026-05-05 19:49 | 53.77772 | 14.44403 | 37904 ft | 408 kts | 259° |
| 2026-05-05 19:50 | 53.76761 | 14.34991 | 37907 ft | 408 kts | 259° |
| 2026-05-05 19:50 | 53.75586 | 14.25597 | 37922 ft | 408 kts | 252° |
| 2026-05-05 19:51 | 53.73750 | 14.16530 | 37898 ft | 410 kts | 251° |
| 2026-05-05 19:51 | 53.71937 | 14.07381 | 37897 ft | 411 kts | 251° |
| 2026-05-05 19:52 | 53.70093 | 13.98245 | 37890 ft | 411 kts | 251° |
| 2026-05-05 19:52 | 53.68266 | 13.89176 | 37885 ft | 409 kts | 251° |
| 2026-05-05 19:53 | 53.66420 | 13.80080 | 37879 ft | 408 kts | 251° |
| 2026-05-05 19:53 | 53.64578 | 13.71037 | 37873 ft | 408 kts | 251° |
| 2026-05-05 19:54 | 53.62721 | 13.61966 | 37872 ft | 409 kts | 251° |
| 2026-05-05 19:54 | 53.60855 | 13.52887 | 37872 ft | 411 kts | 251° |
| 2026-05-05 19:55 | 53.58987 | 13.43848 | 37881 ft | 412 kts | 251° |
| 2026-05-05 19:55 | 53.57095 | 13.34724 | 37875 ft | 411 kts | 251° |
| 2026-05-05 19:56 | 53.55201 | 13.25641 | 37882 ft | 411 kts | 250° |
| 2026-05-05 19:56 | 53.53305 | 13.16585 | 37882 ft | 410 kts | 250° |
| 2026-05-05 19:57 | 53.51418 | 13.07614 | 37871 ft | 410 kts | 250° |
| 2026-05-05 19:57 | 53.49511 | 12.98584 | 37872 ft | 410 kts | 250° |